sensor_id;sensor_type;location;lat;lon;timestamp;pressure;altitude;pressure_sealevel;temperature;humidity
65718;BME280;52445;52.466;-1.016;2022-12-18T00:01:17;100697.66;;;-0.86;77.26
65718;BME280;52445;52.466;-1.016;2022-12-18T00:03:45;100690.97;;;-0.84;77.37
65718;BME280;52445;52.466;-1.016;2022-12-18T00:06:12;100685.88;;;-0.84;77.43
65718;BME280;52445;52.466;-1.016;2022-12-18T00:08:41;100682.56;;;-0.83;77.44
65718;BME280;52445;52.466;-1.016;2022-12-18T00:11:10;100680.78;;;-0.84;77.69
65718;BME280;52445;52.466;-1.016;2022-12-18T00:13:37;100680.66;;;-0.87;77.77
65718;BME280;52445;52.466;-1.016;2022-12-18T00:16:07;100682.38;;;-0.86;77.84
65718;BME280;52445;52.466;-1.016;2022-12-18T00:18:35;100679.03;;;-0.85;78.07
65718;BME280;52445;52.466;-1.016;2022-12-18T00:21:05;100672.28;;;-0.84;77.44
65718;BME280;52445;52.466;-1.016;2022-12-18T00:23:33;100681.59;;;-0.85;77.61
65718;BME280;52445;52.466;-1.016;2022-12-18T00:26:01;100679.75;;;-0.87;77.65
65718;BME280;52445;52.466;-1.016;2022-12-18T00:28:28;100682.38;;;-0.86;77.55
65718;BME280;52445;52.466;-1.016;2022-12-18T00:31:04;100689.13;;;-0.86;77.26
65718;BME280;52445;52.466;-1.016;2022-12-18T00:33:32;100685.66;;;-0.88;78.01
65718;BME280;52445;52.466;-1.016;2022-12-18T00:36:09;100692.56;;;-0.86;77.98
65718;BME280;52445;52.466;-1.016;2022-12-18T00:38:37;100691.75;;;-0.85;77.82
65718;BME280;52445;52.466;-1.016;2022-12-18T00:41:07;100685.00;;;-0.84;78.24
65718;BME280;52445;52.466;-1.016;2022-12-18T00:43:34;100674.84;;;-0.84;78.17
65718;BME280;52445;52.466;-1.016;2022-12-18T00:46:01;100675.88;;;-0.81;78.15
65718;BME280;52445;52.466;-1.016;2022-12-18T00:48:28;100685.19;;;-0.81;78.48
65718;BME280;52445;52.466;-1.016;2022-12-18T00:50:54;100680.78;;;-0.84;78.42
65718;BME280;52445;52.466;-1.016;2022-12-18T00:53:21;100687.47;;;-0.86;78.83
65718;BME280;52445;52.466;-1.016;2022-12-18T00:55:48;100684.84;;;-0.87;78.37
65718;BME280;52445;52.466;-1.016;2022-12-18T00:58:16;100682.22;;;-0.89;78.14
65718;BME280;52445;52.466;-1.016;2022-12-18T01:00:43;100670.13;;;-0.93;77.97
65718;BME280;52445;52.466;-1.016;2022-12-18T01:03:12;100685.22;;;-0.96;78.06
65718;BME280;52445;52.466;-1.016;2022-12-18T01:05:41;100677.59;;;-0.96;78.26
65718;BME280;52445;52.466;-1.016;2022-12-18T01:08:08;100673.31;;;-0.97;78.05
65718;BME280;52445;52.466;-1.016;2022-12-18T01:10:34;100678.38;;;-0.97;78.07
65718;BME280;52445;52.466;-1.016;2022-12-18T01:13:01;100675.59;;;-1.02;77.79
65718;BME280;52445;52.466;-1.016;2022-12-18T01:15:27;100672.94;;;-1.04;78.17
65718;BME280;52445;52.466;-1.016;2022-12-18T01:17:54;100659.22;;;-1.07;77.58
65718;BME280;52445;52.466;-1.016;2022-12-18T01:20:20;100664.22;;;-1.09;77.87
65718;BME280;52445;52.466;-1.016;2022-12-18T01:22:47;100655.63;;;-1.11;78.18
65718;BME280;52445;52.466;-1.016;2022-12-18T01:25:16;100653.88;;;-1.12;78.01
65718;BME280;52445;52.466;-1.016;2022-12-18T01:27:44;100660.53;;;-1.14;78.39
65718;BME280;52445;52.466;-1.016;2022-12-18T01:30:12;100656.19;;;-1.17;78.03
65718;BME280;52445;52.466;-1.016;2022-12-18T01:32:41;100656.84;;;-1.19;78.13
65718;BME280;52445;52.466;-1.016;2022-12-18T01:35:09;100656.84;;;-1.19;78.07
65718;BME280;52445;52.466;-1.016;2022-12-18T01:37:37;100651.78;;;-1.19;78.34
65718;BME280;52445;52.466;-1.016;2022-12-18T01:40:06;100648.28;;;-1.21;77.83
65718;BME280;52445;52.466;-1.016;2022-12-18T01:42:34;100637.94;;;-1.24;78.10
65718;BME280;52445;52.466;-1.016;2022-12-18T01:47:47;100653.03;;;-1.27;78.11
65718;BME280;52445;52.466;-1.016;2022-12-18T01:50:21;100653.72;;;-1.30;77.75
65718;BME280;52445;52.466;-1.016;2022-12-18T01:52:53;100650.31;;;-1.31;77.40
65718;BME280;52445;52.466;-1.016;2022-12-18T01:55:24;100640.09;;;-1.32;78.00
65718;BME280;52445;52.466;-1.016;2022-12-18T01:57:54;100640.75;;;-1.35;77.92
65718;BME280;52445;52.466;-1.016;2022-12-18T02:00:22;100642.34;;;-1.37;77.28
65718;BME280;52445;52.466;-1.016;2022-12-18T02:02:49;100635.53;;;-1.38;77.46
65718;BME280;52445;52.466;-1.016;2022-12-18T02:05:26;100645.69;;;-1.38;78.17
65718;BME280;52445;52.466;-1.016;2022-12-18T02:08:33;100645.53;;;-1.41;77.90
65718;BME280;52445;52.466;-1.016;2022-12-18T02:27:49;100663.03;;;-1.46;78.04
65718;BME280;52445;52.466;-1.016;2022-12-18T02:30:17;100668.94;;;-1.47;77.95
65718;BME280;52445;52.466;-1.016;2022-12-18T02:32:48;100670.59;;;-1.47;78.46
65718;BME280;52445;52.466;-1.016;2022-12-18T02:35:20;100676.28;;;-1.51;77.77
65718;BME280;52445;52.466;-1.016;2022-12-18T02:37:48;100670.25;;;-1.53;77.86
65718;BME280;52445;52.466;-1.016;2022-12-18T02:40:17;100679.53;;;-1.54;77.83
65718;BME280;52445;52.466;-1.016;2022-12-18T02:42:44;100681.97;;;-1.56;78.38
65718;BME280;52445;52.466;-1.016;2022-12-18T02:45:12;100686.09;;;-1.58;78.19
65718;BME280;52445;52.466;-1.016;2022-12-18T02:47:40;100689.50;;;-1.57;77.71
65718;BME280;52445;52.466;-1.016;2022-12-18T02:50:38;100677.59;;;-1.58;78.15
65718;BME280;52445;52.466;-1.016;2022-12-18T03:06:26;100657.78;;;-1.34;76.51
65718;BME280;52445;52.466;-1.016;2022-12-18T03:08:59;100653.94;;;-1.57;77.05
65718;BME280;52445;52.466;-1.016;2022-12-18T03:11:30;100647.66;;;-1.64;77.97
65718;BME280;52445;52.466;-1.016;2022-12-18T03:14:21;100643.97;;;-1.69;77.81
65718;BME280;52445;52.466;-1.016;2022-12-18T03:16:53;100640.47;;;-1.71;77.43
65718;BME280;52445;52.466;-1.016;2022-12-18T03:19:22;100637.84;;;-1.73;78.16
65718;BME280;52445;52.466;-1.016;2022-12-18T03:21:54;100637.84;;;-1.73;77.80
65718;BME280;52445;52.466;-1.016;2022-12-18T03:24:23;100640.28;;;-1.74;77.77
65718;BME280;52445;52.466;-1.016;2022-12-18T03:26:54;100638.53;;;-1.75;77.67
65718;BME280;52445;52.466;-1.016;2022-12-18T03:29:27;100633.47;;;-1.75;78.00
65718;BME280;52445;52.466;-1.016;2022-12-18T03:32:02;100628.28;;;-1.77;77.71
65718;BME280;52445;52.466;-1.016;2022-12-18T03:34:33;100626.63;;;-1.76;77.35
65718;BME280;52445;52.466;-1.016;2022-12-18T03:37:01;100624.88;;;-1.77;77.96
65718;BME280;52445;52.466;-1.016;2022-12-18T03:39:29;100612.78;;;-1.82;77.38
65718;BME280;52445;52.466;-1.016;2022-12-18T03:45:13;100607.38;;;-1.88;77.39
65718;BME280;52445;52.466;-1.016;2022-12-18T03:47:58;100603.06;;;-1.89;77.68
65718;BME280;52445;52.466;-1.016;2022-12-18T03:50:38;100595.44;;;-1.89;77.80
65718;BME280;52445;52.466;-1.016;2022-12-18T03:53:17;100586.88;;;-1.91;78.20
65718;BME280;52445;52.466;-1.016;2022-12-18T03:55:47;100581.72;;;-1.92;77.73
65718;BME280;52445;52.466;-1.016;2022-12-18T03:58:17;100580.06;;;-1.92;78.14
65718;BME280;52445;52.466;-1.016;2022-12-18T04:00:47;100578.47;;;-1.90;78.35
65718;BME280;52445;52.466;-1.016;2022-12-18T04:03:18;100572.44;;;-1.92;78.00
65718;BME280;52445;52.466;-1.016;2022-12-18T04:05:52;100573.22;;;-1.93;78.62
65718;BME280;52445;52.466;-1.016;2022-12-18T04:08:21;100578.28;;;-1.93;78.60
65718;BME280;52445;52.466;-1.016;2022-12-18T04:10:48;100571.47;;;-1.94;78.64
65718;BME280;52445;52.466;-1.016;2022-12-18T04:13:23;100574.81;;;-1.95;78.53
65718;BME280;52445;52.466;-1.016;2022-12-18T04:15:50;100559.56;;;-1.95;78.43
65718;BME280;52445;52.466;-1.016;2022-12-18T04:18:17;100543.34;;;-1.97;77.79
65718;BME280;52445;52.466;-1.016;2022-12-18T04:20:44;100550.22;;;-1.96;77.95
65718;BME280;52445;52.466;-1.016;2022-12-18T04:23:10;100551.06;;;-1.96;78.36
65718;BME280;52445;52.466;-1.016;2022-12-18T04:25:37;100558.59;;;-1.97;77.59
65718;BME280;52445;52.466;-1.016;2022-12-18T04:28:04;100556.84;;;-1.98;77.98
65718;BME280;52445;52.466;-1.016;2022-12-18T04:30:30;100550.78;;;-2.00;77.67
65718;BME280;52445;52.466;-1.016;2022-12-18T04:32:57;100548.25;;;-2.00;78.79
65718;BME280;52445;52.466;-1.016;2022-12-18T04:35:24;100552.56;;;-1.99;78.54
65718;BME280;52445;52.466;-1.016;2022-12-18T04:37:50;100545.72;;;-2.00;77.96
65718;BME280;52445;52.466;-1.016;2022-12-18T04:40:17;100530.34;;;-2.03;79.02
65718;BME280;52445;52.466;-1.016;2022-12-18T04:42:43;100528.75;;;-2.01;78.39
65718;BME280;52445;52.466;-1.016;2022-12-18T04:45:10;100525.41;;;-2.00;78.68
65718;BME280;52445;52.466;-1.016;2022-12-18T04:47:37;100523.84;;;-1.98;78.17
65718;BME280;52445;52.466;-1.016;2022-12-18T04:50:04;100525.50;;;-1.99;79.05
65718;BME280;52445;52.466;-1.016;2022-12-18T04:52:30;100521.94;;;-2.02;80.16
65718;BME280;52445;52.466;-1.016;2022-12-18T04:54:57;100520.34;;;-2.00;79.82
65718;BME280;52445;52.466;-1.016;2022-12-18T04:57:23;100516.66;;;-2.05;81.32
65718;BME280;52445;52.466;-1.016;2022-12-18T04:59:50;100506.53;;;-2.05;81.59
65718;BME280;52445;52.466;-1.016;2022-12-18T05:02:17;100498.09;;;-2.04;81.17
65718;BME280;52445;52.466;-1.016;2022-12-18T05:04:43;100490.25;;;-2.09;81.63
65718;BME280;52445;52.466;-1.016;2022-12-18T05:07:10;100472.88;;;-2.01;82.04
65718;BME280;52445;52.466;-1.016;2022-12-18T05:09:36;100467.63;;;-2.04;81.99
65718;BME280;52445;52.466;-1.016;2022-12-18T05:12:03;100466.06;;;-2.02;82.23
65718;BME280;52445;52.466;-1.016;2022-12-18T05:14:30;100451.00;;;-1.99;81.66
65718;BME280;52445;52.466;-1.016;2022-12-18T05:16:56;100460.47;;;-1.97;81.99
65718;BME280;52445;52.466;-1.016;2022-12-18T05:19:26;100445.94;;;-1.99;82.33
65718;BME280;52445;52.466;-1.016;2022-12-18T05:21:53;100445.75;;;-2.02;83.46
65718;BME280;52445;52.466;-1.016;2022-12-18T05:24:19;100434.19;;;-1.97;83.12
65718;BME280;52445;52.466;-1.016;2022-12-18T05:26:46;100429.81;;;-2.00;83.28
65718;BME280;52445;52.466;-1.016;2022-12-18T05:29:12;100434.00;;;-2.00;83.11
65718;BME280;52445;52.466;-1.016;2022-12-18T05:31:39;100436.28;;;-1.90;83.18
65718;BME280;52445;52.466;-1.016;2022-12-18T05:34:08;100447.69;;;-1.98;83.63
65718;BME280;52445;52.466;-1.016;2022-12-18T05:36:35;100435.44;;;-2.05;84.00
65718;BME280;52445;52.466;-1.016;2022-12-18T05:39:02;100434.72;;;-2.03;83.81
65718;BME280;52445;52.466;-1.016;2022-12-18T05:41:29;100435.25;;;-2.09;84.01
65718;BME280;52445;52.466;-1.016;2022-12-18T05:43:56;100440.25;;;-2.10;84.23
65718;BME280;52445;52.466;-1.016;2022-12-18T05:46:23;100445.41;;;-2.09;83.54
65718;BME280;52445;52.466;-1.016;2022-12-18T05:48:50;100451.28;;;-2.10;83.89
65718;BME280;52445;52.466;-1.016;2022-12-18T05:51:19;100457.34;;;-2.08;83.58
65718;BME280;52445;52.466;-1.016;2022-12-18T05:53:47;100450.66;;;-2.05;83.98
65718;BME280;52445;52.466;-1.016;2022-12-18T05:56:17;100447.34;;;-2.04;83.43
65718;BME280;52445;52.466;-1.016;2022-12-18T05:58:44;100439.03;;;-2.02;83.71
65718;BME280;52445;52.466;-1.016;2022-12-18T06:01:14;100432.44;;;-1.98;83.01
65718;BME280;52445;52.466;-1.016;2022-12-18T06:03:42;100441.03;;;-1.96;83.41
65718;BME280;52445;52.466;-1.016;2022-12-18T06:06:18;100441.88;;;-1.96;83.63
65718;BME280;52445;52.466;-1.016;2022-12-18T06:08:46;100442.94;;;-1.92;82.64
65718;BME280;52445;52.466;-1.016;2022-12-18T06:11:15;100435.47;;;-1.89;83.22
65718;BME280;52445;52.466;-1.016;2022-12-18T06:13:42;100428.19;;;-1.83;82.18
65718;BME280;52445;52.466;-1.016;2022-12-18T06:16:09;100423.13;;;-1.83;82.92
65718;BME280;52445;52.466;-1.016;2022-12-18T06:18:36;100408.50;;;-1.87;83.59
65718;BME280;52445;52.466;-1.016;2022-12-18T06:21:03;100399.47;;;-1.82;82.75
65718;BME280;52445;52.466;-1.016;2022-12-18T06:23:30;100409.78;;;-1.78;82.88
65718;BME280;52445;52.466;-1.016;2022-12-18T06:25:56;100413.31;;;-1.76;82.62
65718;BME280;52445;52.466;-1.016;2022-12-18T06:28:23;100404.72;;;-1.78;82.88
65718;BME280;52445;52.466;-1.016;2022-12-18T06:30:50;100403.91;;;-1.77;83.50
65718;BME280;52445;52.466;-1.016;2022-12-18T06:33:17;100393.91;;;-1.74;83.60
65718;BME280;52445;52.466;-1.016;2022-12-18T06:35:43;100392.53;;;-1.69;83.31
65718;BME280;52445;52.466;-1.016;2022-12-18T06:38:10;100390.91;;;-1.67;82.73
65718;BME280;52445;52.466;-1.016;2022-12-18T06:40:38;100409.50;;;-1.68;82.66
65718;BME280;52445;52.466;-1.016;2022-12-18T06:43:05;100402.97;;;-1.63;83.13
65718;BME280;52445;52.466;-1.016;2022-12-18T06:45:32;100412.25;;;-1.63;83.56
65718;BME280;52445;52.466;-1.016;2022-12-18T06:47:59;100419.97;;;-1.62;83.47
65718;BME280;52445;52.466;-1.016;2022-12-18T06:50:25;100422.66;;;-1.59;82.42
65718;BME280;52445;52.466;-1.016;2022-12-18T06:52:52;100414.41;;;-1.55;83.13
65718;BME280;52445;52.466;-1.016;2022-12-18T06:55:19;100416.19;;;-1.53;82.82
65718;BME280;52445;52.466;-1.016;2022-12-18T06:57:45;100402.69;;;-1.52;82.97
65718;BME280;52445;52.466;-1.016;2022-12-18T07:00:12;100400.94;;;-1.53;82.55
65718;BME280;52445;52.466;-1.016;2022-12-18T07:02:39;100389.09;;;-1.53;82.39
65718;BME280;52445;52.466;-1.016;2022-12-18T07:05:07;100406.78;;;-1.55;82.96
65718;BME280;52445;52.466;-1.016;2022-12-18T07:07:36;100393.44;;;-1.50;82.04
65718;BME280;52445;52.466;-1.016;2022-12-18T07:10:03;100385.84;;;-1.50;82.45
65718;BME280;52445;52.466;-1.016;2022-12-18T07:12:30;100389.50;;;-1.45;82.03
65718;BME280;52445;52.466;-1.016;2022-12-18T07:14:57;100379.91;;;-1.51;82.18
65718;BME280;52445;52.466;-1.016;2022-12-18T07:17:23;100383.28;;;-1.50;81.94
65718;BME280;52445;52.466;-1.016;2022-12-18T07:19:50;100363.94;;;-1.48;82.56
65718;BME280;52445;52.466;-1.016;2022-12-18T07:22:16;100348.03;;;-1.44;82.42
65718;BME280;52445;52.466;-1.016;2022-12-18T07:24:43;100337.00;;;-1.45;82.62
65718;BME280;52445;52.466;-1.016;2022-12-18T07:27:09;100347.06;;;-1.46;82.80
65718;BME280;52445;52.466;-1.016;2022-12-18T07:29:36;100340.41;;;-1.44;82.73
65718;BME280;52445;52.466;-1.016;2022-12-18T07:32:03;100337.06;;;-1.43;82.82
65718;BME280;52445;52.466;-1.016;2022-12-18T07:34:30;100343.91;;;-1.42;82.37
65718;BME280;52445;52.466;-1.016;2022-12-18T07:36:56;100354.22;;;-1.39;82.13
65718;BME280;52445;52.466;-1.016;2022-12-18T07:39:23;100350.81;;;-1.39;82.75
65718;BME280;52445;52.466;-1.016;2022-12-18T07:41:50;100354.22;;;-1.39;82.73
65718;BME280;52445;52.466;-1.016;2022-12-18T07:44:36;100350.97;;;-1.36;82.73
65718;BME280;52445;52.466;-1.016;2022-12-18T07:47:03;100347.72;;;-1.34;82.63
65718;BME280;52445;52.466;-1.016;2022-12-18T07:49:37;100346.69;;;-1.37;82.38
65718;BME280;52445;52.466;-1.016;2022-12-18T07:52:03;100363.81;;;-1.33;82.40
65718;BME280;52445;52.466;-1.016;2022-12-18T07:54:30;100364.00;;;-1.30;82.03
65718;BME280;52445;52.466;-1.016;2022-12-18T07:56:57;100364.16;;;-1.27;82.38
65718;BME280;52445;52.466;-1.016;2022-12-18T07:59:23;100373.59;;;-1.24;82.46
65718;BME280;52445;52.466;-1.016;2022-12-18T08:01:50;100380.56;;;-1.20;81.75
65718;BME280;52445;52.466;-1.016;2022-12-18T08:04:17;100389.00;;;-1.21;82.21
65718;BME280;52445;52.466;-1.016;2022-12-18T08:06:43;100378.28;;;-1.15;81.99
65718;BME280;52445;52.466;-1.016;2022-12-18T08:09:13;100375.66;;;-1.17;82.22
65718;BME280;52445;52.466;-1.016;2022-12-18T08:11:40;100366.28;;;-1.18;82.45
65718;BME280;52445;52.466;-1.016;2022-12-18T08:14:07;100371.22;;;-1.21;82.68
65718;BME280;52445;52.466;-1.016;2022-12-18T08:16:33;100370.41;;;-1.20;82.68
65718;BME280;52445;52.466;-1.016;2022-12-18T08:19:00;100363.75;;;-1.18;82.57
65718;BME280;52445;52.466;-1.016;2022-12-18T08:21:28;100372.31;;;-1.16;82.38
65718;BME280;52445;52.466;-1.016;2022-12-18T08:23:59;100372.16;;;-1.19;82.42
65718;BME280;52445;52.466;-1.016;2022-12-18T08:26:28;100376.66;;;-1.13;82.50
65718;BME280;52445;52.466;-1.016;2022-12-18T08:28:56;100361.41;;;-1.13;82.39
65718;BME280;52445;52.466;-1.016;2022-12-18T08:31:24;100367.38;;;-1.13;82.54
65718;BME280;52445;52.466;-1.016;2022-12-18T08:33:52;100358.50;;;-1.21;83.10
65718;BME280;52445;52.466;-1.016;2022-12-18T08:36:21;100371.56;;;-1.13;82.61
65718;BME280;52445;52.466;-1.016;2022-12-18T08:38:48;100366.97;;;-1.04;82.64
65718;BME280;52445;52.466;-1.016;2022-12-18T08:41:16;100377.06;;;-1.06;82.74
65718;BME280;52445;52.466;-1.016;2022-12-18T08:43:43;100377.22;;;-1.02;82.59
65718;BME280;52445;52.466;-1.016;2022-12-18T08:46:38;100365.44;;;-1.00;82.65
65718;BME280;52445;52.466;-1.016;2022-12-18T08:49:06;100351.22;;;-0.97;82.83
65718;BME280;52445;52.466;-1.016;2022-12-18T08:51:34;100325.88;;;-0.95;82.32
65718;BME280;52445;52.466;-1.016;2022-12-18T08:54:00;100332.84;;;-0.91;82.63
65718;BME280;52445;52.466;-1.016;2022-12-18T08:56:29;100346.06;;;-0.98;83.24
65718;BME280;52445;52.466;-1.016;2022-12-18T08:58:56;100321.88;;;-0.90;82.66
65718;BME280;52445;52.466;-1.016;2022-12-18T09:01:23;100307.53;;;-0.88;82.73
65718;BME280;52445;52.466;-1.016;2022-12-18T09:03:51;100315.41;;;-0.83;82.54
65718;BME280;52445;52.466;-1.016;2022-12-18T09:06:19;100308.16;;;-0.75;82.27
65718;BME280;52445;52.466;-1.016;2022-12-18T09:08:46;100295.44;;;-0.75;82.32
65718;BME280;52445;52.466;-1.016;2022-12-18T09:11:19;100326.72;;;-0.76;82.40
65718;BME280;52445;52.466;-1.016;2022-12-18T09:13:46;100300.13;;;-0.65;82.06
65718;BME280;52445;52.466;-1.016;2022-12-18T09:16:13;100312.13;;;-0.62;81.96
65718;BME280;52445;52.466;-1.016;2022-12-18T09:18:40;100297.06;;;-0.58;81.91
65718;BME280;52445;52.466;-1.016;2022-12-18T09:21:11;100296.28;;;-0.57;81.59
65718;BME280;52445;52.466;-1.016;2022-12-18T09:23:38;100296.94;;;-0.61;82.45
65718;BME280;52445;52.466;-1.016;2022-12-18T09:26:05;100278.47;;;-0.57;81.81
65718;BME280;52445;52.466;-1.016;2022-12-18T09:28:32;100274.09;;;-0.59;82.63
65718;BME280;52445;52.466;-1.016;2022-12-18T09:30:59;100313.97;;;-0.60;82.38
65718;BME280;52445;52.466;-1.016;2022-12-18T09:33:29;100311.84;;;-0.50;82.10
65718;BME280;52445;52.466;-1.016;2022-12-18T09:35:56;100305.94;;;-0.49;82.09
65718;BME280;52445;52.466;-1.016;2022-12-18T09:38:23;100304.59;;;-0.41;81.97
65718;BME280;52445;52.466;-1.016;2022-12-18T09:40:52;100293.78;;;-0.37;81.72
65718;BME280;52445;52.466;-1.016;2022-12-18T09:43:28;100294.72;;;-0.35;82.04
65718;BME280;52445;52.466;-1.016;2022-12-18T09:46:01;100294.00;;;-0.32;81.76
65718;BME280;52445;52.466;-1.016;2022-12-18T09:48:34;100293.25;;;-0.30;81.78
65718;BME280;52445;52.466;-1.016;2022-12-18T09:51:12;100300.88;;;-0.30;81.87
65718;BME280;52445;52.466;-1.016;2022-12-18T09:53:41;100294.06;;;-0.31;81.98
65718;BME280;52445;52.466;-1.016;2022-12-18T09:56:15;100291.66;;;-0.28;81.96
65718;BME280;52445;52.466;-1.016;2022-12-18T09:58:49;100280.44;;;-0.31;81.99
65718;BME280;52445;52.466;-1.016;2022-12-18T10:01:21;100272.63;;;-0.36;82.39
65718;BME280;52445;52.466;-1.016;2022-12-18T10:03:50;100265.31;;;-0.28;82.05
65718;BME280;52445;52.466;-1.016;2022-12-18T10:09:27;100250.94;;;-0.28;81.92
65718;BME280;52445;52.466;-1.016;2022-12-18T10:20:27;100227.94;;;-0.09;81.81
65718;BME280;52445;52.466;-1.016;2022-12-18T10:25:50;100207.97;;;-0.20;82.22
65718;BME280;52445;52.466;-1.016;2022-12-18T10:28:18;100202.03;;;-0.20;82.85
65718;BME280;52445;52.466;-1.016;2022-12-18T10:30:46;100196.13;;;-0.19;82.66
65718;BME280;52445;52.466;-1.016;2022-12-18T10:33:16;100189.38;;;-0.19;82.44
65718;BME280;52445;52.466;-1.016;2022-12-18T10:35:44;100186.63;;;-0.23;82.49
65718;BME280;52445;52.466;-1.016;2022-12-18T10:43:32;100176.63;;;-0.19;82.55
65718;BME280;52445;52.466;-1.016;2022-12-18T10:46:05;100165.44;;;-0.22;83.33
65718;BME280;52445;52.466;-1.016;2022-12-18T10:51:33;100147.03;;;0.05;82.72
65718;BME280;52445;52.466;-1.016;2022-12-18T10:54:03;100146.53;;;-0.08;82.63
65718;BME280;52445;52.466;-1.016;2022-12-18T10:56:35;100159.19;;;-0.09;82.30
65718;BME280;52445;52.466;-1.016;2022-12-18T10:59:05;100150.81;;;-0.07;82.74
65718;BME280;52445;52.466;-1.016;2022-12-18T11:04:27;100126.28;;;-0.05;82.90
65718;BME280;52445;52.466;-1.016;2022-12-18T11:07:07;100117.72;;;-0.07;83.07
65718;BME280;52445;52.466;-1.016;2022-12-18T11:09:36;100102.44;;;-0.07;82.91
65718;BME280;52445;52.466;-1.016;2022-12-18T11:12:14;100097.47;;;-0.04;82.74
65718;BME280;52445;52.466;-1.016;2022-12-18T11:17:21;100094.09;;;-0.03;83.17
65718;BME280;52445;52.466;-1.016;2022-12-18T11:19:53;100089.16;;;0.01;82.71
65718;BME280;52445;52.466;-1.016;2022-12-18T11:22:24;100085.06;;;0.04;82.84
65718;BME280;52445;52.466;-1.016;2022-12-18T11:27:33;100066.28;;;0.02;83.11
65718;BME280;52445;52.466;-1.016;2022-12-18T11:30:20;100063.81;;;0.04;82.38
65718;BME280;52445;52.466;-1.016;2022-12-18T11:32:49;100051.75;;;-0.01;83.16
65718;BME280;52445;52.466;-1.016;2022-12-18T11:35:21;100054.31;;;-0.01;82.88
65718;BME280;52445;52.466;-1.016;2022-12-18T11:37:54;100034.75;;;-0.02;82.93
65718;BME280;52445;52.466;-1.016;2022-12-18T11:40:31;100037.38;;;0.00;83.04
65718;BME280;52445;52.466;-1.016;2022-12-18T11:45:49;100024.56;;;-0.02;83.42
65718;BME280;52445;52.466;-1.016;2022-12-18T11:51:00;100012.63;;;-0.03;83.45
65718;BME280;52445;52.466;-1.016;2022-12-18T11:53:29;100000.00;;;0.01;83.25
65718;BME280;52445;52.466;-1.016;2022-12-18T11:56:32;100008.53;;;0.01;83.07
65718;BME280;52445;52.466;-1.016;2022-12-18T12:13:18;99978.81;;;0.02;83.44
65718;BME280;52445;52.466;-1.016;2022-12-18T12:21:28;99959.31;;;0.02;83.91
65718;BME280;52445;52.466;-1.016;2022-12-18T12:35:12;99915.16;;;0.24;83.43
65718;BME280;52445;52.466;-1.016;2022-12-18T12:40:23;99892.22;;;0.24;84.08
65718;BME280;52445;52.466;-1.016;2022-12-18T12:45:59;99872.66;;;0.23;83.33
65718;BME280;52445;52.466;-1.016;2022-12-18T12:51:14;99862.47;;;0.23;84.37
65718;BME280;52445;52.466;-1.016;2022-12-18T12:53:42;99862.59;;;0.27;83.47
65718;BME280;52445;52.466;-1.016;2022-12-18T12:56:11;99859.22;;;0.28;83.81
65718;BME280;52445;52.466;-1.016;2022-12-18T13:04:07;99867.19;;;0.37;83.50
65718;BME280;52445;52.466;-1.016;2022-12-18T13:09:32;99849.41;;;0.38;83.69
65718;BME280;52445;52.466;-1.016;2022-12-18T13:12:19;99842.53;;;0.36;83.49
65718;BME280;52445;52.466;-1.016;2022-12-18T13:15:21;99838.31;;;0.36;83.94
65718;BME280;52445;52.466;-1.016;2022-12-18T13:17:49;99830.72;;;0.38;84.11
65718;BME280;52445;52.466;-1.016;2022-12-18T13:20:16;99841.88;;;0.42;83.79
65718;BME280;52445;52.466;-1.016;2022-12-18T13:25:37;99839.50;;;0.46;83.62
65718;BME280;52445;52.466;-1.016;2022-12-18T13:31:00;99827.66;;;0.48;83.59
65718;BME280;52445;52.466;-1.016;2022-12-18T13:36:26;99807.50;;;0.55;84.48
65718;BME280;52445;52.466;-1.016;2022-12-18T13:44:34;99789.81;;;0.59;84.52
65718;BME280;52445;52.466;-1.016;2022-12-18T13:50:22;99768.53;;;0.59;84.28
65718;BME280;52445;52.466;-1.016;2022-12-18T13:52:57;99757.59;;;0.61;84.57
65718;BME280;52445;52.466;-1.016;2022-12-18T13:55:24;99744.88;;;0.63;84.95
65718;BME280;52445;52.466;-1.016;2022-12-18T13:58:03;99753.34;;;0.62;85.39
65718;BME280;52445;52.466;-1.016;2022-12-18T14:00:31;99740.00;;;0.69;84.78
65718;BME280;52445;52.466;-1.016;2022-12-18T14:02:59;99733.97;;;0.67;85.47
65718;BME280;52445;52.466;-1.016;2022-12-18T14:08:08;99723.00;;;0.68;85.46
65718;BME280;52445;52.466;-1.016;2022-12-18T14:10:41;99722.16;;;0.69;85.42
65718;BME280;52445;52.466;-1.016;2022-12-18T14:13:26;99710.25;;;0.70;84.67
65718;BME280;52445;52.466;-1.016;2022-12-18T14:15:55;99695.84;;;0.70;84.91
65718;BME280;52445;52.466;-1.016;2022-12-18T14:18:33;99699.38;;;0.75;85.68
65718;BME280;52445;52.466;-1.016;2022-12-18T14:21:03;99704.50;;;0.75;85.79
65718;BME280;52445;52.466;-1.016;2022-12-18T14:26:26;99685.91;;;0.80;86.13
65718;BME280;52445;52.466;-1.016;2022-12-18T14:28:56;99708.84;;;0.78;85.62
65718;BME280;52445;52.466;-1.016;2022-12-18T14:31:26;99674.97;;;0.82;86.84
65718;BME280;52445;52.466;-1.016;2022-12-18T14:33:53;99675.81;;;0.83;87.03
65718;BME280;52445;52.466;-1.016;2022-12-18T14:36:25;99679.19;;;0.82;86.16
65718;BME280;52445;52.466;-1.016;2022-12-18T14:38:54;99674.19;;;0.85;86.78
65718;BME280;52445;52.466;-1.016;2022-12-18T14:41:22;99675.91;;;0.86;87.49
65718;BME280;52445;52.466;-1.016;2022-12-18T14:43:51;99672.66;;;0.90;86.70
65718;BME280;52445;52.466;-1.016;2022-12-18T14:52:13;99650.94;;;1.03;86.86
65718;BME280;52445;52.466;-1.016;2022-12-18T14:54:46;99640.69;;;1.01;87.95
65718;BME280;52445;52.466;-1.016;2022-12-18T14:57:22;99635.56;;;1.01;87.58
65718;BME280;52445;52.466;-1.016;2022-12-18T14:59:50;99637.31;;;1.02;87.13
65718;BME280;52445;52.466;-1.016;2022-12-18T15:07:52;99627.16;;;1.04;87.98
65718;BME280;52445;52.466;-1.016;2022-12-18T15:10:22;99620.41;;;1.06;87.77
65718;BME280;52445;52.466;-1.016;2022-12-18T15:20:55;99619.09;;;1.19;nan
65718;BME280;52445;52.466;-1.016;2022-12-18T15:23:26;99619.16;;;1.22;87.27
65718;BME280;52445;52.466;-1.016;2022-12-18T15:25:57;99625.13;;;1.23;87.96
65718;BME280;52445;52.466;-1.016;2022-12-18T15:33:43;99598.03;;;1.26;87.47
65718;BME280;52445;52.466;-1.016;2022-12-18T15:36:15;99594.59;;;1.26;88.56
65718;BME280;52445;52.466;-1.016;2022-12-18T15:38:53;99581.06;;;1.28;87.64
65718;BME280;52445;52.466;-1.016;2022-12-18T15:41:32;99586.16;;;1.28;88.43
65718;BME280;52445;52.466;-1.016;2022-12-18T15:44:02;99570.91;;;1.30;88.44